Sunday, July 22, 2018, 10:14 AM EDT
Back to Local

KBGR, Bangor Int'l Airport

Location: Bangor, ME, United States Lat: 44.8
Local Time: 10:14 AM EDT (14:14 GMT) Lon: -68.817
Time Zone: US/Eastern Elev: 193 ft

Show me the last for .
Show Decoded

2018-07-22 09:53 METAR KBGR 221353Z VRB03KT 10SM BKN016 BKN150 21/14 A3023 RMK AO2 SLP233
                 T02110144 $ =
2018-07-22 08:53 METAR KBGR 221253Z 17004KT 10SM BKN150 19/14 A3022 RMK AO2 SLP230 T01890139 $ =
2018-07-22 08:14 METAR KBGR 221214Z 00000KT 10SM SCT007 BKN150 17/14 A3021 RMK AO2 T01720139 $ =
2018-07-22 07:53 METAR KBGR 221153Z 12004KT 10SM BKN006 17/14 A3021 RMK AO2 SLP226 T01670139
                 10167 20100 50008 $ =
2018-07-22 07:23 METAR KBGR 221123Z 16006KT 7SM OVC005 16/14 A3021 RMK AO2 T01560139 $ =
2018-07-22 07:08 METAR KBGR 221108Z 13004KT 2SM BR OVC002 15/14 A3021 RMK AO2 SFC VIS 3 T01500139
                 $ =
2018-07-22 06:53 METAR KBGR 221053Z 15004KT 3/4SM R15/4500VP6000FT BR OVC002 14/14 A3021 RMK AO2
                 TWR VIS 1 SLP227 T01440139 $ =
2018-07-22 06:39 METAR KBGR 221039Z COR 16005KT 3/4SM R15/2400V5500FT BR OVC002 14/14 A3021 RMK
                 AO2 TWR VIS 1 T01390139 $ =
2018-07-22 06:18 METAR KBGR 221018Z 19003KT 1SM R15/P6000FT BR OVC002 14/13 A3020 RMK AO2 SFC VIS
                 2 VIS NW 2 T01390133 $ =
2018-07-22 06:07 METAR KBGR 221007Z 18004KT 7SM BCFG BKN003 BKN250 13/13 A3020 RMK AO2 VIS NW 2
                 T01330128 $ =
2018-07-22 05:53 METAR KBGR 220953Z 20003KT 10SM BCFG FEW002 FEW080 SCT250 13/12 A3019 RMK AO2
                 SLP222 T01280117 $ =
2018-07-22 04:53 METAR KBGR 220853Z 00000KT 10SM BCFG FEW080 SCT250 12/11 A3018 RMK AO2 SLP218
                 T01170111 53003 $ =
2018-07-22 03:53 METAR KBGR 220753Z 00000KT 10SM FEW250 12/11 A3018 RMK AO2 SLP217 T01220111 $ =
2018-07-22 02:53 METAR KBGR 220653Z 19003KT 10SM FEW250 13/11 A3017 RMK AO2 SLP215 T01280111 $ =
2018-07-22 01:53 METAR KBGR 220553Z 00000KT 10SM CLR 13/11 A3018 RMK AO2 SLP215 T01330111 10222
                 20122 53001 $ =
2018-07-22 00:53 METAR KBGR 220453Z 00000KT 10SM FEW250 13/11 A3017 RMK AO2 SLP212 T01280106
                 402940111 $ =
2018-07-21 23:53 METAR KBGR 220353Z 00000KT 10SM FEW250 14/11 A3017 RMK AO2 SLP213 T01390111 =
2018-07-21 22:53 METAR KBGR 220253Z 16004KT 10SM FEW250 17/11 A3017 RMK AO2 SLP214 T01670106
                 51007 =
2018-07-21 21:53 METAR KBGR 220153Z 18004KT 10SM FEW250 19/12 A3017 RMK AO2 SLP214 T01890122 =
2018-07-21 20:53 METAR KBGR 220053Z 20007KT 10SM FEW250 21/12 A3016 RMK AO2 SLP211 T02060122 =
2018-07-21 19:53 METAR KBGR 212353Z 16009KT 10SM FEW250 22/13 A3015 RMK AO2 SLP206 T02220128
                 10294 20222 53009 =
2018-07-21 18:53 METAR KBGR 212253Z 18010KT 10SM FEW250 25/13 A3014 RMK AO2 SLP203 T02500128 =
2018-07-21 17:53 METAR KBGR 212153Z 18010KT 10SM FEW250 27/13 A3012 RMK AO2 SLP197 T02720133 =
2018-07-21 16:53 METAR KBGR 212053Z 20008KT 10SM FEW250 28/13 A3012 RMK AO2 SLP197 T02830128
                 56010 =
2018-07-21 15:53 METAR KBGR 211953Z 21005KT 10SM FEW250 28/13 A3013 RMK AO2 SLP199 T02830128 =
2018-07-21 14:53 METAR KBGR 211853Z 22006KT 10SM FEW250 28/13 A3014 RMK AO2 SLP202 T02830133 =
2018-07-21 13:53 METAR KBGR 211753Z VRB04KT 10SM CLR 27/12 A3015 RMK AO2 SLP207 T02720122 10278
                 20183 58012 =
2018-07-21 12:53 METAR KBGR 211653Z 08007KT 10SM CLR 27/11 A3016 RMK AO2 SLP211 T02720111 =
2018-07-21 11:53 METAR KBGR 211553Z 00000KT 10SM CLR 26/12 A3019 RMK AO2 SLP219 T02560122 =
2018-07-21 10:53 METAR KBGR 211453Z 10003KT 10SM CLR 25/11 A3019 RMK AO2 SLP219 T02500111 56006 =

Support USWX by starting your Amazon purchase here.